Time;durP1;ratioP1;P1;durP2;ratioP2;P2;SDS_P1;SDS_P2;PMS_P1;PMS_P2;Temp;Humidity;BMP_temperature;BMP_pressure;BME280_temperature;BME280_humidity;BME280_pressure;Samples;Min_cycle;Max_cycle;Signal;HPM_P1;HPM_P2
2022/10/12 00:01:00;;;;;;;;;;;13.50;99.90;;;;;;6184181;23;19974;-83
2022/10/12 00:03:27;;;;;;;;;;;13.50;99.90;;;;;;6189826;23;19955;-83
2022/10/12 00:06:19;;;;;;;;;;;13.50;99.90;;;;;;6187679;23;19948;-83
2022/10/12 00:08:47;;;;;;;;;;;13.50;99.90;;;;;;6183364;23;20230;-83
2022/10/12 00:11:15;;;;;;;;;;;13.50;99.90;;;;;;6183634;23;19999;-83
2022/10/12 00:13:42;;;;;;;;;;;13.40;99.90;;;;;;6183619;23;19964;-83
2022/10/12 00:16:10;;;;;;;;;;;13.40;99.90;;;;;;6182779;23;19942;-83
2022/10/12 00:18:37;;;;;;;;;;;13.30;99.90;;;;;;6188602;23;20373;-83
2022/10/12 00:21:05;;;;;;;;;;;13.20;99.90;;;;;;6184014;23;19921;-83
2022/10/12 00:23:32;;;;;;;;;;;13.10;99.90;;;;;;6184617;23;20301;-83
2022/10/12 00:26:06;;;;;;;;;;;13.10;99.90;;;;;;6185769;23;20307;-83
2022/10/12 00:28:33;;;;;;;;;;;13.10;99.90;;;;;;6184882;23;19920;-83
2022/10/12 00:31:00;;;;;;;;;;;13.10;99.90;;;;;;6184439;23;19927;-83
2022/10/12 00:33:28;;;;;;;;;;;13.20;99.90;;;;;;6186729;23;19995;-83
2022/10/12 00:35:55;;;;;;;;;;;13.20;99.90;;;;;;6184512;23;19920;-83
2022/10/12 00:38:22;;;;;;;;;;;13.20;99.90;;;;;;6185035;23;20272;-83
2022/10/12 00:40:48;;;;;;;;;;;13.20;99.90;;;;;;6185519;23;19920;-83
2022/10/12 00:43:27;;;;;;;;;;;13.30;99.90;;;;;;6186293;23;19930;-82
2022/10/12 00:45:54;;;;;;;;;;;13.30;99.90;;;;;;6186759;23;19920;-83
2022/10/12 00:48:21;;;;;;;;;;;13.30;99.90;;;;;;6186358;23;19944;-83
2022/10/12 00:50:48;;;;;;;;;;;13.30;99.90;;;;;;6187716;23;19955;-83
2022/10/12 00:53:16;;;;;;;;;;;13.30;99.90;;;;;;6186317;23;19987;-83
2022/10/12 00:55:46;;;;;;;;;;;13.40;99.90;;;;;;6185591;23;19921;-83
2022/10/12 00:58:13;;;;;;;;;;;13.40;99.90;;;;;;6184284;23;19993;-83
2022/10/12 01:00:40;;;;;;;;;;;13.40;99.90;;;;;;6187396;23;19964;-81
2022/10/12 01:03:09;;;;;;;;;;;13.40;99.90;;;;;;6195387;23;19920;-81
2022/10/12 01:05:38;;;;;;;;;;;13.40;99.90;;;;;;6194102;23;19936;-81
2022/10/12 01:08:05;;;;;;;;;;;13.40;99.90;;;;;;6190673;23;19955;-80
2022/10/12 01:10:32;;;;;;;;;;;13.30;99.90;;;;;;6197013;23;20252;-80
2022/10/12 01:12:59;;;;;;;;;;;13.30;99.90;;;;;;6193062;23;20404;-81
2022/10/12 01:15:32;;;;;;;;;;;13.30;99.90;;;;;;6192842;23;19959;-82
2022/10/12 01:18:04;;;;;;;;;;;13.30;99.90;;;;;;6186253;23;19962;-80
2022/10/12 01:20:35;;;;;;;;;;;13.20;99.90;;;;;;6186186;23;19924;-80
2022/10/12 01:23:05;;;;;;;;;;;13.20;99.90;;;;;;6193765;23;20004;-81
2022/10/12 01:25:34;;;;;;;;;;;13.20;99.90;;;;;;6191680;23;19969;-82
2022/10/12 01:28:07;;;;;;;;;;;13.20;99.90;;;;;;6190877;23;19947;-82
2022/10/12 01:30:40;;;;;;;;;;;13.30;99.90;;;;;;6189447;23;20238;-81
2022/10/12 01:33:07;;;;;;;;;;;13.30;99.90;;;;;;6187781;23;19991;-81
2022/10/12 01:35:34;;;;;;;;;;;13.30;99.90;;;;;;6188650;23;19960;-81
2022/10/12 01:38:00;;;;;;;;;;;13.20;99.90;;;;;;6188133;23;19944;-81
2022/10/12 01:40:50;;;;;;;;;;;13.20;99.90;;;;;;6195322;23;19968;-81
2022/10/12 01:43:19;;;;;;;;;;;13.30;99.90;;;;;;6190215;23;20403;-83
2022/10/12 01:45:46;;;;;;;;;;;13.30;99.90;;;;;;6202841;23;19947;-82
2022/10/12 01:48:12;;;;;;;;;;;13.30;99.90;;;;;;6205416;23;19951;-82
2022/10/12 01:50:48;;;;;;;;;;;13.30;99.90;;;;;;6208142;23;20345;-81
2022/10/12 01:53:15;;;;;;;;;;;13.30;99.90;;;;;;6206544;23;19928;-82
2022/10/12 01:55:47;;;;;;;;;;;13.30;99.90;;;;;;6204268;23;19973;-81
2022/10/12 01:58:20;;;;;;;;;;;13.20;99.90;;;;;;6199541;23;19916;-81
2022/10/12 02:00:53;;;;;;;;;;;13.30;99.90;;;;;;6202406;23;20368;-80
2022/10/12 02:03:24;;;;;;;;;;;13.30;99.90;;;;;;6198651;23;19924;-82
2022/10/12 02:06:07;;;;;;;;;;;13.30;99.90;;;;;;6204709;23;19943;-82
2022/10/12 02:08:39;;;;;;;;;;;13.30;99.90;;;;;;6196758;23;19963;-81
2022/10/12 02:11:08;;;;;;;;;;;13.30;99.90;;;;;;6201327;23;19936;-82
2022/10/12 02:13:36;;;;;;;;;;;13.30;99.90;;;;;;6200685;23;19927;-81
2022/10/12 02:16:06;;;;;;;;;;;13.30;99.90;;;;;;6191831;23;20304;-82
2022/10/12 02:18:35;;;;;;;;;;;13.30;99.90;;;;;;6193097;23;19960;-81
2022/10/12 02:21:02;;;;;;;;;;;13.30;99.90;;;;;;6189003;23;20308;-81
2022/10/12 02:23:29;;;;;;;;;;;13.20;99.90;;;;;;6184402;23;19948;-81
2022/10/12 02:25:57;;;;;;;;;;;13.10;99.90;;;;;;6184876;23;20285;-81
2022/10/12 02:28:25;;;;;;;;;;;13.20;99.90;;;;;;6186375;23;20370;-81
2022/10/12 02:30:57;;;;;;;;;;;13.10;99.90;;;;;;6187038;23;20439;-81
2022/10/12 02:33:45;;;;;;;;;;;13.10;99.90;;;;;;6183380;23;20333;-81
2022/10/12 02:36:15;;;;;;;;;;;13.10;99.90;;;;;;6181928;23;20119;-81
2022/10/12 02:38:46;;;;;;;;;;;12.90;99.90;;;;;;6185047;23;20309;-81
2022/10/12 02:41:16;;;;;;;;;;;12.90;99.90;;;;;;6184310;23;20257;-81
2022/10/12 02:43:42;;;;;;;;;;;12.90;99.90;;;;;;6185230;23;20000;-81
2022/10/12 02:46:10;;;;;;;;;;;12.90;99.90;;;;;;6183542;23;19921;-81
2022/10/12 02:48:38;;;;;;;;;;;12.90;99.90;;;;;;6184486;23;20234;-80
2022/10/12 02:51:06;;;;;;;;;;;12.90;99.90;;;;;;6183753;23;19999;-81
2022/10/12 02:53:32;;;;;;;;;;;12.90;99.90;;;;;;6183181;23;19928;-80
2022/10/12 02:56:00;;;;;;;;;;;12.90;99.90;;;;;;6200746;23;20380;-82
2022/10/12 02:58:27;;;;;;;;;;;12.80;99.90;;;;;;6200732;23;19946;-81
2022/10/12 03:00:54;;;;;;;;;;;12.90;99.90;;;;;;6194711;23;20003;-81
2022/10/12 03:03:21;;;;;;;;;;;12.80;99.90;;;;;;6182793;23;20253;-80
2022/10/12 03:05:47;;;;;;;;;;;12.80;99.90;;;;;;6184556;23;20252;-81
2022/10/12 03:08:14;;;;;;;;;;;12.80;99.90;;;;;;6182626;23;20333;-81
2022/10/12 03:10:41;;;;;;;;;;;12.70;99.90;;;;;;6183758;23;19920;-80
2022/10/12 03:13:08;;;;;;;;;;;12.70;99.90;;;;;;6183860;23;19972;-81
2022/10/12 03:15:34;;;;;;;;;;;12.70;99.90;;;;;;6184618;23;19924;-81
2022/10/12 03:18:01;;;;;;;;;;;12.70;99.90;;;;;;6184244;23;19920;-80
2022/10/12 03:20:28;;;;;;;;;;;12.70;99.90;;;;;;6184734;23;19920;-81
2022/10/12 03:22:54;;;;;;;;;;;12.70;99.90;;;;;;6186650;23;19920;-80
2022/10/12 03:25:21;;;;;;;;;;;12.70;99.90;;;;;;6188057;23;20316;-81
2022/10/12 03:27:48;;;;;;;;;;;12.70;99.90;;;;;;6189012;23;19992;-81
2022/10/12 03:30:14;;;;;;;;;;;12.60;99.90;;;;;;6186464;23;20015;-81
2022/10/12 03:32:41;;;;;;;;;;;12.60;99.90;;;;;;6184733;23;19921;-81
2022/10/12 03:35:08;;;;;;;;;;;12.60;99.90;;;;;;6183618;23;19927;-81
2022/10/12 03:37:35;;;;;;;;;;;12.60;99.90;;;;;;6184218;23;19972;-81
2022/10/12 03:40:02;;;;;;;;;;;12.60;99.90;;;;;;6185796;23;19920;-81
2022/10/12 03:42:29;;;;;;;;;;;12.60;99.90;;;;;;6183061;23;19921;-80
2022/10/12 03:44:55;;;;;;;;;;;12.50;99.90;;;;;;6185092;23;19931;-81
2022/10/12 03:47:22;;;;;;;;;;;12.50;99.90;;;;;;6183734;23;19927;-81
2022/10/12 03:49:49;;;;;;;;;;;12.50;99.90;;;;;;6184341;23;19927;-80
2022/10/12 03:52:15;;;;;;;;;;;12.40;99.90;;;;;;6183613;23;19924;-81
2022/10/12 03:54:42;;;;;;;;;;;12.40;99.90;;;;;;6182959;23;19920;-81
2022/10/12 03:57:09;;;;;;;;;;;12.40;99.90;;;;;;6183105;23;19920;-81
2022/10/12 03:59:35;;;;;;;;;;;12.30;99.90;;;;;;6182417;23;19951;-81
2022/10/12 04:02:02;;;;;;;;;;;12.30;99.90;;;;;;6183275;23;19927;-82
2022/10/12 04:04:29;;;;;;;;;;;12.30;99.90;;;;;;6182367;23;20397;-81
2022/10/12 04:06:55;;;;;;;;;;;12.20;99.90;;;;;;6183862;23;19967;-80
2022/10/12 04:09:22;;;;;;;;;;;12.20;99.90;;;;;;6182079;23;19999;-81
2022/10/12 04:11:49;;;;;;;;;;;12.10;99.90;;;;;;6183309;23;19920;-81
2022/10/12 04:14:15;;;;;;;;;;;12.10;99.90;;;;;;6182964;23;19943;-81
2022/10/12 04:16:42;;;;;;;;;;;12.10;99.90;;;;;;6207498;23;19920;-81
2022/10/12 04:19:11;;;;;;;;;;;12.00;99.90;;;;;;6182806;23;19921;-81
2022/10/12 04:21:37;;;;;;;;;;;12.00;99.90;;;;;;6182552;23;20933;-81
2022/10/12 04:24:04;;;;;;;;;;;11.90;99.90;;;;;;6182584;23;19995;-81
2022/10/12 04:26:31;;;;;;;;;;;11.90;99.90;;;;;;6183834;23;19924;-82
2022/10/12 04:28:58;;;;;;;;;;;11.80;99.90;;;;;;6182779;23;19920;-81
2022/10/12 04:31:24;;;;;;;;;;;11.90;99.90;;;;;;6182152;23;19920;-81
2022/10/12 04:33:55;;;;;;;;;;;11.90;99.90;;;;;;6183241;23;19943;-82
2022/10/12 04:36:23;;;;;;;;;;;11.90;99.90;;;;;;6182283;23;19920;-83
2022/10/12 04:38:49;;;;;;;;;;;11.80;99.90;;;;;;6183165;23;20253;-81
2022/10/12 04:41:16;;;;;;;;;;;11.80;99.90;;;;;;6182714;23;19920;-81
2022/10/12 04:43:43;;;;;;;;;;;11.80;99.90;;;;;;6182237;23;19927;-81
2022/10/12 04:46:10;;;;;;;;;;;11.80;99.90;;;;;;6183120;23;19920;-82
2022/10/12 04:48:37;;;;;;;;;;;11.80;99.90;;;;;;6181878;23;19944;-81
2022/10/12 04:51:03;;;;;;;;;;;11.80;99.90;;;;;;6182953;23;19920;-81
2022/10/12 04:53:31;;;;;;;;;;;11.70;99.90;;;;;;6182076;23;19924;-81
2022/10/12 04:56:00;;;;;;;;;;;11.70;99.90;;;;;;6182857;23;19951;-81
2022/10/12 04:58:27;;;;;;;;;;;11.70;99.90;;;;;;6182303;23;19920;-81
2022/10/12 05:00:54;;;;;;;;;;;11.70;99.90;;;;;;6182992;23;19987;-82
2022/10/12 05:03:21;;;;;;;;;;;11.70;99.90;;;;;;6181903;23;20325;-83
2022/10/12 05:05:47;;;;;;;;;;;11.60;99.90;;;;;;6182760;23;20008;-81
2022/10/12 05:08:14;;;;;;;;;;;11.60;99.90;;;;;;6182956;23;19999;-82
2022/10/12 05:10:41;;;;;;;;;;;11.60;99.90;;;;;;6182327;23;20003;-81
2022/10/12 05:13:07;;;;;;;;;;;11.50;99.90;;;;;;6185829;23;19920;-81
2022/10/12 05:15:34;;;;;;;;;;;11.40;99.90;;;;;;6183445;23;20260;-81
2022/10/12 05:18:01;;;;;;;;;;;11.40;99.90;;;;;;6184737;23;19948;-82
2022/10/12 05:20:27;;;;;;;;;;;11.40;99.90;;;;;;6183922;23;19924;-81
2022/10/12 05:22:56;;;;;;;;;;;11.40;99.90;;;;;;6184889;23;19944;-82
2022/10/12 05:25:22;;;;;;;;;;;11.40;99.90;;;;;;6183711;23;19921;-81
2022/10/12 05:27:49;;;;;;;;;;;11.50;99.90;;;;;;6183820;23;20356;-81
2022/10/12 05:30:16;;;;;;;;;;;11.60;99.90;;;;;;6183900;23;20257;-81
2022/10/12 05:32:43;;;;;;;;;;;11.60;99.90;;;;;;6183710;23;19920;-81
2022/10/12 05:35:10;;;;;;;;;;;11.60;99.90;;;;;;6184541;23;20257;-81
2022/10/12 05:37:36;;;;;;;;;;;11.50;99.90;;;;;;6183591;23;19927;-81
2022/10/12 05:40:04;;;;;;;;;;;11.50;99.90;;;;;;6184708;23;19955;-81
2022/10/12 05:42:33;;;;;;;;;;;11.50;99.90;;;;;;6184659;23;19924;-82
2022/10/12 05:45:00;;;;;;;;;;;11.50;99.90;;;;;;6185005;23;19994;-82
2022/10/12 05:47:27;;;;;;;;;;;11.60;99.90;;;;;;6183280;23;20370;-81
2022/10/12 05:49:54;;;;;;;;;;;11.60;99.90;;;;;;6183270;23;19920;-82
2022/10/12 05:52:21;;;;;;;;;;;11.60;99.90;;;;;;6183874;23;19952;-82
2022/10/12 05:54:48;;;;;;;;;;;11.70;99.90;;;;;;6182848;23;19927;-81
2022/10/12 05:57:15;;;;;;;;;;;11.70;99.90;;;;;;6184179;23;19999;-81
2022/10/12 05:59:41;;;;;;;;;;;11.70;99.90;;;;;;6183305;23;20260;-81
2022/10/12 06:02:11;;;;;;;;;;;11.70;99.90;;;;;;6179452;23;19920;-82
2022/10/12 06:04:38;;;;;;;;;;;11.80;99.90;;;;;;6181570;23;19920;-81
2022/10/12 06:07:05;;;;;;;;;;;11.90;99.90;;;;;;6184264;23;19928;-81
2022/10/12 06:09:32;;;;;;;;;;;11.90;99.90;;;;;;6183340;23;19956;-81
2022/10/12 06:11:59;;;;;;;;;;;11.90;99.90;;;;;;6182317;23;19927;-81
2022/10/12 06:14:26;;;;;;;;;;;12.00;99.90;;;;;;6183496;23;19958;-81
2022/10/12 06:16:53;;;;;;;;;;;12.00;99.90;;;;;;6183925;23;20256;-82
2022/10/12 06:19:20;;;;;;;;;;;12.10;99.90;;;;;;6183659;23;19931;-82
2022/10/12 06:21:47;;;;;;;;;;;12.20;99.90;;;;;;6184018;23;19991;-82
2022/10/12 06:24:13;;;;;;;;;;;12.30;99.90;;;;;;6181272;23;20017;-81
2022/10/12 06:26:40;;;;;;;;;;;12.30;99.90;;;;;;6183072;23;19928;-82
2022/10/12 06:29:07;;;;;;;;;;;12.40;99.90;;;;;;6183672;23;19942;-83
2022/10/12 06:31:34;;;;;;;;;;;12.40;99.90;;;;;;6182823;23;19951;-81
2022/10/12 06:34:00;;;;;;;;;;;12.40;99.90;;;;;;6183993;23;20359;-81
2022/10/12 06:36:27;;;;;;;;;;;12.50;99.90;;;;;;6182755;23;20351;-81
2022/10/12 06:38:54;;;;;;;;;;;12.60;99.90;;;;;;6184652;23;19944;-81
2022/10/12 06:41:21;;;;;;;;;;;12.60;99.90;;;;;;6183165;23;19924;-82
2022/10/12 06:43:47;;;;;;;;;;;12.70;99.90;;;;;;6182977;23;19921;-81
2022/10/12 06:46:14;;;;;;;;;;;12.70;99.90;;;;;;6183364;23;19999;-81
2022/10/12 06:48:41;;;;;;;;;;;12.70;99.90;;;;;;6182651;23;19992;-82
2022/10/12 06:51:07;;;;;;;;;;;12.80;99.90;;;;;;6184811;23;19948;-81
2022/10/12 06:53:35;;;;;;;;;;;12.90;99.90;;;;;;6181847;23;19995;-82
2022/10/12 06:56:06;;;;;;;;;;;13.00;99.90;;;;;;6182526;23;20321;-81
2022/10/12 06:58:33;;;;;;;;;;;13.00;99.90;;;;;;6182280;23;20003;-82
2022/10/12 07:01:06;;;;;;;;;;;13.10;99.90;;;;;;6183360;23;19952;-82
2022/10/12 07:03:33;;;;;;;;;;;13.20;99.90;;;;;;6182742;23;19944;-82
2022/10/12 07:06:04;;;;;;;;;;;13.30;99.90;;;;;;6183345;23;19924;-82
2022/10/12 07:08:30;;;;;;;;;;;13.40;99.90;;;;;;6182668;23;19924;-81
2022/10/12 07:11:01;;;;;;;;;;;13.50;99.90;;;;;;6183627;23;19920;-82
2022/10/12 07:13:28;;;;;;;;;;;13.60;99.90;;;;;;6182809;23;19940;-82
2022/10/12 07:15:54;;;;;;;;;;;13.70;99.90;;;;;;6183224;23;19927;-82
2022/10/12 07:18:21;;;;;;;;;;;13.70;99.90;;;;;;6183173;23;19934;-81
2022/10/12 07:20:48;;;;;;;;;;;13.80;99.90;;;;;;6182850;23;19996;-81
2022/10/12 07:23:15;;;;;;;;;;;13.90;99.90;;;;;;6183154;23;19924;-82
2022/10/12 07:25:49;;;;;;;;;;;14.00;99.90;;;;;;6182354;23;19970;-81
2022/10/12 07:28:16;;;;;;;;;;;14.00;99.90;;;;;;6182802;23;19930;-81
2022/10/12 07:30:43;;;;;;;;;;;14.10;99.90;;;;;;6182806;23;19999;-81
2022/10/12 07:33:09;;;;;;;;;;;14.20;99.90;;;;;;6182986;23;19927;-81
2022/10/12 07:35:36;;;;;;;;;;;14.20;99.90;;;;;;6182506;23;19924;-81
2022/10/12 07:38:23;;;;;;;;;;;14.30;99.90;;;;;;6183231;23;20027;-81
2022/10/12 07:40:50;;;;;;;;;;;14.40;99.90;;;;;;6182754;23;19924;-81
2022/10/12 07:43:16;;;;;;;;;;;14.40;99.90;;;;;;6182900;23;20000;-82
2022/10/12 07:45:44;;;;;;;;;;;14.50;99.90;;;;;;6182645;23;19999;-81
2022/10/12 07:48:11;;;;;;;;;;;14.60;99.90;;;;;;6183364;23;19924;-82
2022/10/12 07:50:37;;;;;;;;;;;14.70;99.90;;;;;;6181708;23;19920;-82
2022/10/12 07:53:04;;;;;;;;;;;14.80;99.90;;;;;;6182396;23;19995;-82
2022/10/12 07:55:31;;;;;;;;;;;14.90;99.90;;;;;;6182028;23;20355;-82
2022/10/12 07:57:59;;;;;;;;;;;15.00;99.90;;;;;;6182753;23;19920;-83
2022/10/12 08:00:26;;;;;;;;;;;15.20;99.90;;;;;;6182805;23;19959;-83
2022/10/12 08:02:53;;;;;;;;;;;15.30;99.90;;;;;;6181794;23;19927;-82
2022/10/12 08:05:21;;;;;;;;;;;15.50;99.90;;;;;;6182734;23;20344;-82
2022/10/12 08:07:48;;;;;;;;;;;15.70;99.90;;;;;;6182542;23;20279;-82
2022/10/12 08:10:16;;;;;;;;;;;15.80;99.90;;;;;;6182411;23;20396;-82
2022/10/12 08:12:43;;;;;;;;;;;15.90;99.90;;;;;;6181598;23;19946;-83
2022/10/12 08:15:16;;;;;;;;;;;16.10;99.90;;;;;;6182815;23;20256;-83
2022/10/12 08:17:43;;;;;;;;;;;16.30;99.90;;;;;;6181127;23;19964;-81
2022/10/12 08:20:10;;;;;;;;;;;16.40;99.90;;;;;;6182598;23;20455;-82
2022/10/12 08:22:36;;;;;;;;;;;16.50;99.90;;;;;;6181487;23;20002;-82
2022/10/12 08:25:03;;;;;;;;;;;16.60;99.90;;;;;;6180926;23;19995;-82
2022/10/12 08:27:31;;;;;;;;;;;16.90;99.90;;;;;;6182314;23;20349;-83
2022/10/12 08:29:57;;;;;;;;;;;17.10;99.40;;;;;;6182040;23;19920;-82
2022/10/12 08:32:24;;;;;;;;;;;17.20;97.00;;;;;;6182149;23;19920;-82
2022/10/12 08:34:51;;;;;;;;;;;17.40;98.00;;;;;;6179702;23;19928;-82
2022/10/12 08:37:18;;;;;;;;;;;17.60;96.90;;;;;;6182779;23;19987;-82
2022/10/12 08:39:45;;;;;;;;;;;17.70;94.20;;;;;;6181943;23;19930;-82
2022/10/12 08:42:27;;;;;;;;;;;17.80;93.60;;;;;;6179279;23;19924;-82
2022/10/12 08:45:06;;;;;;;;;;;17.90;93.30;;;;;;6180919;23;19978;-82
2022/10/12 08:47:44;;;;;;;;;;;18.00;91.30;;;;;;6186076;23;20324;-82
2022/10/12 08:50:47;;;;;;;;;;;18.20;92.70;;;;;;6186070;23;20333;-82
2022/10/12 08:53:17;;;;;;;;;;;18.30;93.50;;;;;;6099421;23;20470;-82
2022/10/12 08:55:45;;;;;;;;;;;18.40;90.90;;;;;;6169304;23;19924;-82
2022/10/12 08:58:16;;;;;;;;;;;18.50;88.40;;;;;;6183759;23;19974;-82
2022/10/12 09:00:45;;;;;;;;;;;18.50;87.10;;;;;;6184571;23;19920;-82
2022/10/12 09:03:22;;;;;;;;;;;18.60;88.50;;;;;;6183645;23;19927;-83
2022/10/12 09:05:54;;;;;;;;;;;18.80;90.20;;;;;;6184729;23;19927;-82
2022/10/12 09:08:26;;;;;;;;;;;18.90;85.10;;;;;;6183617;23;19920;-82
2022/10/12 09:11:13;;;;;;;;;;;19.00;84.00;;;;;;6184755;23;20140;-82
2022/10/12 09:13:50;;;;;;;;;;;19.00;86.50;;;;;;6168624;23;19955;-82
2022/10/12 09:16:22;;;;;;;;;;;19.00;83.10;;;;;;6184940;23;19921;-82
2022/10/12 09:18:56;;;;;;;;;;;19.10;85.70;;;;;;6184398;23;20365;-83
2022/10/12 09:21:25;;;;;;;;;;;19.20;85.40;;;;;;6184821;23;20003;-82
2022/10/12 09:23:54;;;;;;;;;;;19.30;83.80;;;;;;6182374;23;19924;-82
2022/10/12 09:26:30;;;;;;;;;;;19.40;83.20;;;;;;6184172;23;19924;-82
2022/10/12 09:28:57;;;;;;;;;;;19.30;79.40;;;;;;6184442;23;20252;-83
2022/10/12 09:31:24;;;;;;;;;;;19.10;80.40;;;;;;6183784;23;20364;-83
2022/10/12 09:33:53;;;;;;;;;;;19.20;78.50;;;;;;6184164;23;19924;-83
2022/10/12 09:36:21;;;;;;;;;;;19.40;81.20;;;;;;6185330;23;19924;-81
2022/10/12 09:38:48;;;;;;;;;;;19.50;79.00;;;;;;6184265;23;19940;-83
2022/10/12 09:41:18;;;;;;;;;;;19.70;77.30;;;;;;6184333;23;19986;-83
2022/10/12 09:43:45;;;;;;;;;;;19.70;74.70;;;;;;6184129;23;20399;-83
2022/10/12 09:46:13;;;;;;;;;;;19.70;74.90;;;;;;6184000;23;19991;-83
2022/10/12 09:48:55;;;;;;;;;;;19.90;74.60;;;;;;6183584;23;20020;-83
2022/10/12 09:51:22;;;;;;;;;;;19.90;72.60;;;;;;6183487;23;19920;-83
2022/10/12 09:53:49;;;;;;;;;;;20.10;71.90;;;;;;6184664;23;19927;-83
2022/10/12 09:56:24;;;;;;;;;;;20.20;72.50;;;;;;6183229;23;19920;-83
2022/10/12 09:58:56;;;;;;;;;;;20.50;73.00;;;;;;6184377;23;19920;-83
2022/10/12 10:01:27;;;;;;;;;;;20.60;73.40;;;;;;6183521;23;19978;-84
2022/10/12 10:04:10;;;;;;;;;;;20.70;72.00;;;;;;6184302;23;19947;-84
2022/10/12 10:06:38;;;;;;;;;;;20.80;71.20;;;;;;6182865;23;19999;-83
2022/10/12 10:09:05;;;;;;;;;;;20.60;71.10;;;;;;6184206;23;20371;-83
2022/10/12 10:11:32;;;;;;;;;;;20.60;70.00;;;;;;6184655;23;19956;-83
2022/10/12 10:14:00;;;;;;;;;;;20.60;69.90;;;;;;6183972;23;20223;-84
2022/10/12 10:16:28;;;;;;;;;;;20.40;71.70;;;;;;6183420;23;19971;-84
2022/10/12 10:18:56;;;;;;;;;;;20.50;72.30;;;;;;6182170;23;19920;-83
2022/10/12 10:21:27;;;;;;;;;;;20.30;69.50;;;;;;6180856;23;19942;-83
2022/10/12 10:23:54;;;;;;;;;;;20.40;69.40;;;;;;6183871;23;19924;-83
2022/10/12 10:26:22;;;;;;;;;;;20.50;69.10;;;;;;6182897;23;19978;-83
2022/10/12 10:28:55;;;;;;;;;;;20.40;68.10;;;;;;6183052;23;19920;-83
2022/10/12 10:31:26;;;;;;;;;;;20.60;70.10;;;;;;6184100;23;19920;-83
2022/10/12 10:34:15;;;;;;;;;;;20.70;68.30;;;;;;6182974;23;19943;-83
2022/10/12 10:36:47;;;;;;;;;;;20.80;66.80;;;;;;6182762;23;19995;-83
2022/10/12 10:39:16;;;;;;;;;;;21.00;67.50;;;;;;6183302;23;19920;-83
2022/10/12 10:41:43;;;;;;;;;;;21.10;67.10;;;;;;6182837;23;20019;-83
2022/10/12 10:44:23;;;;;;;;;;;21.30;68.20;;;;;;6183900;23;19924;-84
2022/10/12 10:46:50;;;;;;;;;;;21.30;64.60;;;;;;6182559;23;20499;-84
2022/10/12 10:49:27;;;;;;;;;;;21.50;65.00;;;;;;6183862;23;19920;-84
2022/10/12 10:51:56;;;;;;;;;;;21.60;64.90;;;;;;6184323;23;20287;-83
2022/10/12 10:54:23;;;;;;;;;;;21.50;65.40;;;;;;6183567;23;19927;-84
2022/10/12 10:56:51;;;;;;;;;;;21.70;64.80;;;;;;6182468;23;20296;-84
2022/10/12 10:59:27;;;;;;;;;;;21.80;64.60;;;;;;6183472;23;19994;-84
2022/10/12 11:01:59;;;;;;;;;;;21.70;64.20;;;;;;6183254;23;19920;-83
2022/10/12 11:04:36;;;;;;;;;;;21.70;63.20;;;;;;6182537;23;19920;-84
2022/10/12 11:07:08;;;;;;;;;;;21.80;63.20;;;;;;6179860;23;20254;-83
2022/10/12 11:09:39;;;;;;;;;;;21.80;61.00;;;;;;6182004;23;20397;-84
2022/10/12 11:12:18;;;;;;;;;;;21.90;60.60;;;;;;6182730;23;19920;-84
2022/10/12 11:14:46;;;;;;;;;;;21.80;60.00;;;;;;6181074;23;20348;-84
2022/10/12 11:17:26;;;;;;;;;;;21.90;60.00;;;;;;6181061;23;19991;-84
2022/10/12 11:20:11;;;;;;;;;;;22.00;59.30;;;;;;6180030;23;19995;-84
2022/10/12 11:22:53;;;;;;;;;;;22.10;61.20;;;;;;6182734;23;19927;-83
2022/10/12 11:25:32;;;;;;;;;;;22.20;56.90;;;;;;6181647;23;19994;-84
2022/10/12 11:27:59;;;;;;;;;;;22.20;58.80;;;;;;6180460;23;19924;-85
2022/10/12 11:30:29;;;;;;;;;;;22.00;58.50;;;;;;6184115;23;19924;-84
2022/10/12 11:33:01;;;;;;;;;;;21.90;58.80;;;;;;6178620;23;19983;-84
2022/10/12 11:35:35;;;;;;;;;;;22.00;59.00;;;;;;6177508;23;19991;-84
2022/10/12 11:38:25;;;;;;;;;;;22.00;58.60;;;;;;6177659;23;20007;-84
2022/10/12 11:41:04;;;;;;;;;;;22.10;58.40;;;;;;6169131;23;19954;-84
2022/10/12 11:43:51;;;;;;;;;;;22.10;58.20;;;;;;6179725;23;20248;-84
2022/10/12 11:46:20;;;;;;;;;;;22.20;58.90;;;;;;6181857;23;20256;-84
2022/10/12 11:49:13;;;;;;;;;;;22.20;58.10;;;;;;6178895;23;19991;-83
2022/10/12 11:51:44;;;;;;;;;;;22.30;57.90;;;;;;6158243;23;20256;-84
2022/10/12 11:54:21;;;;;;;;;;;22.30;57.50;;;;;;6181103;23;19926;-84
2022/10/12 11:56:50;;;;;;;;;;;22.10;56.60;;;;;;6180935;23;19995;-84
2022/10/12 11:59:29;;;;;;;;;;;21.90;57.90;;;;;;6182379;23;19925;-83
2022/10/12 12:02:00;;;;;;;;;;;21.70;59.80;;;;;;6177340;23;19920;-83
2022/10/12 12:04:28;;;;;;;;;;;21.70;59.30;;;;;;6183309;23;19952;-84
2022/10/12 12:07:26;;;;;;;;;;;21.40;59.00;;;;;;6181830;23;19943;-85
2022/10/12 12:09:53;;;;;;;;;;;21.50;60.70;;;;;;6181710;23;19930;-84
2022/10/12 12:12:21;;;;;;;;;;;21.40;59.40;;;;;;6181830;23;20374;-84
2022/10/12 12:14:51;;;;;;;;;;;21.50;59.30;;;;;;6181396;23;20317;-84
2022/10/12 12:17:18;;;;;;;;;;;21.60;58.60;;;;;;6182488;23;19999;-85
2022/10/12 12:19:44;;;;;;;;;;;21.80;58.90;;;;;;6182558;23;19951;-84
2022/10/12 12:22:22;;;;;;;;;;;21.90;58.90;;;;;;6182310;23;19924;-83
2022/10/12 12:24:51;;;;;;;;;;;22.00;58.70;;;;;;6184242;23;19993;-84
2022/10/12 12:27:22;;;;;;;;;;;21.90;60.50;;;;;;6186335;23;19926;-85
2022/10/12 12:29:52;;;;;;;;;;;21.90;59.30;;;;;;6184774;23;19935;-84
2022/10/12 12:32:19;;;;;;;;;;;22.20;61.40;;;;;;6185324;23;20257;-84
2022/10/12 12:34:50;;;;;;;;;;;22.30;58.70;;;;;;6183183;23;19991;-84
2022/10/12 12:37:18;;;;;;;;;;;22.40;58.10;;;;;;6184817;23;19927;-84
2022/10/12 12:39:50;;;;;;;;;;;22.10;57.60;;;;;;6185453;23;19980;-83
2022/10/12 12:42:25;;;;;;;;;;;21.90;58.70;;;;;;6184964;23;19991;-83
2022/10/12 12:44:52;;;;;;;;;;;22.10;60.30;;;;;;6185477;23;19996;-84
2022/10/12 12:47:36;;;;;;;;;;;22.30;59.10;;;;;;6185532;23;19920;-84
2022/10/12 12:50:30;;;;;;;;;;;22.40;58.20;;;;;;6185238;23;19974;-84
2022/10/12 12:53:01;;;;;;;;;;;22.50;57.80;;;;;;6185319;23;20264;-85
2022/10/12 12:55:28;;;;;;;;;;;22.50;59.50;;;;;;6187365;23;20011;-84
2022/10/12 12:58:20;;;;;;;;;;;22.60;58.70;;;;;;6185496;23;19979;-85
2022/10/12 13:01:06;;;;;;;;;;;22.50;58.60;;;;;;6162885;23;20257;-84
2022/10/12 13:03:33;;;;;;;;;;;22.40;58.00;;;;;;6184718;23;19971;-84
2022/10/12 13:06:18;;;;;;;;;;;22.50;57.70;;;;;;6186903;23;19920;-83
2022/10/12 13:08:52;;;;;;;;;;;22.40;58.30;;;;;;6185211;23;20296;-82
2022/10/12 13:11:22;;;;;;;;;;;21.80;59.40;;;;;;6184769;23;19944;-83
2022/10/12 13:13:56;;;;;;;;;;;21.80;61.00;;;;;;6186426;23;19995;-81
2022/10/12 13:16:39;;;;;;;;;;;21.80;61.10;;;;;;6187856;23;19920;-82
2022/10/12 13:19:27;;;;;;;;;;;21.90;61.40;;;;;;6188339;23;19956;-82
2022/10/12 13:21:54;;;;;;;;;;;22.10;60.80;;;;;;6187548;23;20014;-83
2022/10/12 13:24:27;;;;;;;;;;;22.30;60.20;;;;;;6184819;23;20040;-83
2022/10/12 13:26:55;;;;;;;;;;;22.50;58.90;;;;;;6188492;23;20309;-82
2022/10/12 13:29:26;;;;;;;;;;;22.60;58.90;;;;;;6187720;23;19991;-82
2022/10/12 13:31:56;;;;;;;;;;;22.60;58.60;;;;;;6186382;23;19944;-81
2022/10/12 13:34:28;;;;;;;;;;;22.50;58.20;;;;;;6185044;23;19999;-82
2022/10/12 13:36:59;;;;;;;;;;;22.50;60.60;;;;;;6185344;23;19991;-82
2022/10/12 13:39:27;;;;;;;;;;;22.40;59.60;;;;;;6184736;23;19992;-82
2022/10/12 13:41:56;;;;;;;;;;;22.30;59.40;;;;;;6185323;23;19942;-82
2022/10/12 13:44:28;;;;;;;;;;;22.20;60.00;;;;;;6184239;23;19928;-82
2022/10/12 13:47:00;;;;;;;;;;;22.20;60.80;;;;;;6188781;23;20117;-82
2022/10/12 13:49:28;;;;;;;;;;;22.30;60.10;;;;;;6183188;23;19951;-82
2022/10/12 13:51:56;;;;;;;;;;;22.30;59.70;;;;;;6185063;23;20186;-82
2022/10/12 13:54:46;;;;;;;;;;;22.00;60.10;;;;;;6187243;23;19920;-81
2022/10/12 13:57:38;;;;;;;;;;;22.00;60.90;;;;;;6176270;23;19944;-81
2022/10/12 14:00:23;;;;;;;;;;;22.00;62.60;;;;;;6185093;23;19934;-82
2022/10/12 14:02:58;;;;;;;;;;;22.00;61.30;;;;;;6185554;23;20202;-82
2022/10/12 14:05:26;;;;;;;;;;;22.10;61.70;;;;;;6184807;23;19963;-81
2022/10/12 14:07:55;;;;;;;;;;;22.10;61.20;;;;;;6183226;23;19984;-81
2022/10/12 14:10:29;;;;;;;;;;;21.90;60.50;;;;;;6195793;23;19940;-82
2022/10/12 14:12:56;;;;;;;;;;;21.70;60.80;;;;;;6184503;23;19967;-81
2022/10/12 14:15:24;;;;;;;;;;;21.60;63.00;;;;;;6189737;23;20003;-82
2022/10/12 14:17:51;;;;;;;;;;;21.60;62.70;;;;;;6191242;23;19940;-82
2022/10/12 14:20:27;;;;;;;;;;;21.40;62.60;;;;;;6190682;23;19987;-83
2022/10/12 14:22:55;;;;;;;;;;;21.40;63.10;;;;;;6187175;23;20249;-81
2022/10/12 14:25:24;;;;;;;;;;;21.50;63.60;;;;;;6185455;23;19996;-82
2022/10/12 14:27:55;;;;;;;;;;;21.30;63.60;;;;;;6185568;23;19924;-81
2022/10/12 14:30:23;;;;;;;;;;;21.20;64.30;;;;;;6184995;23;19991;-82
2022/10/12 14:32:51;;;;;;;;;;;21.20;65.60;;;;;;6183979;23;20355;-82